createdAt,value
2022-08-12T00:01:11.062Z,15.50
2022-08-12T00:05:28.202Z,15.40
2022-08-12T00:09:44.135Z,15.40
2022-08-12T00:14:00.032Z,15.40
2022-08-12T00:18:15.970Z,15.30
2022-08-12T00:22:33.077Z,15.20
2022-08-12T00:26:49.494Z,15.20
2022-08-12T00:31:05.627Z,15.10
2022-08-12T00:35:24.377Z,15.10
2022-08-12T00:39:42.147Z,15.00
2022-08-12T00:43:42.963Z,14.90
2022-08-12T00:47:41.122Z,14.90
2022-08-12T00:51:59.073Z,14.80
2022-08-12T00:55:58.667Z,14.80
2022-08-12T01:00:11.443Z,14.70
2022-08-12T01:04:29.844Z,14.60
2022-08-12T01:08:48.044Z,14.50
2022-08-12T01:12:46.186Z,14.50
2022-08-12T01:16:43.870Z,14.40
2022-08-12T01:20:52.480Z,14.30
2022-08-12T01:25:11.863Z,14.20
2022-08-12T01:29:15.626Z,14.20
2022-08-12T01:33:21.911Z,14.10
2022-08-12T01:37:24.574Z,14.00
2022-08-12T01:41:26.073Z,13.90
2022-08-12T01:45:26.675Z,13.80
2022-08-12T01:49:48.678Z,13.70
2022-08-12T01:54:14.872Z,13.70
2022-08-12T01:58:32.013Z,13.60
2022-08-12T02:03:03.953Z,13.50
2022-08-12T02:07:37.845Z,13.40
2022-08-12T02:12:06.111Z,13.40
2022-08-12T02:16:46.732Z,13.30
2022-08-12T02:21:07.414Z,13.20
2022-08-12T02:25:13.562Z,13.20
2022-08-12T02:29:13.418Z,13.10
2022-08-12T02:33:12.136Z,13.10
2022-08-12T02:37:14.005Z,13.00
2022-08-12T02:41:17.134Z,13.00
2022-08-12T02:45:26.019Z,12.90
2022-08-12T02:49:35.065Z,12.90
2022-08-12T02:53:34.587Z,12.90
2022-08-12T02:57:32.954Z,12.80
2022-08-12T03:01:36.290Z,12.80
2022-08-12T03:05:52.483Z,12.70
2022-08-12T03:10:03.711Z,12.70
2022-08-12T03:14:03.875Z,12.70
2022-08-12T03:18:24.911Z,12.70
2022-08-12T03:22:27.097Z,12.70
2022-08-12T03:26:28.008Z,12.70
2022-08-12T03:30:32.720Z,12.60
2022-08-12T03:34:34.013Z,12.60
2022-08-12T03:38:37.366Z,12.60
2022-08-12T03:42:42.929Z,12.50
2022-08-12T03:47:04.057Z,12.50
2022-08-12T03:51:21.206Z,12.40
2022-08-12T03:55:36.530Z,12.40
2022-08-12T03:59:51.934Z,12.40
2022-08-12T04:03:53.343Z,12.40
2022-08-12T04:07:58.222Z,12.30
2022-08-12T04:12:14.422Z,12.30
2022-08-12T04:16:13.682Z,12.30
2022-08-12T04:20:14.432Z,12.30
2022-08-12T04:24:12.551Z,12.30
2022-08-12T04:28:13.539Z,12.30
2022-08-12T04:32:11.641Z,12.30
2022-08-12T04:36:09.516Z,12.30
2022-08-12T04:40:11.283Z,12.40
2022-08-12T04:44:10.416Z,12.50
2022-08-12T04:48:07.760Z,12.80
2022-08-12T04:52:05.937Z,13.10
2022-08-12T04:56:03.057Z,13.30
2022-08-12T05:00:00.154Z,13.60
2022-08-12T05:03:58.929Z,13.80
2022-08-12T05:07:55.976Z,13.90
2022-08-12T05:11:54.076Z,14.10
2022-08-12T05:16:05.070Z,14.20
2022-08-12T05:20:03.113Z,14.30
2022-08-12T05:24:01.584Z,14.40
2022-08-12T05:28:00.642Z,14.50
2022-08-12T05:31:58.198Z,14.60
2022-08-12T05:35:55.289Z,14.70
2022-08-12T05:39:52.409Z,14.70
2022-08-12T05:43:56.748Z,14.80
2022-08-12T05:47:54.339Z,14.90
2022-08-12T05:51:51.826Z,14.90
2022-08-12T05:55:52.873Z,15.00
2022-08-12T05:59:49.864Z,15.10
2022-08-12T06:03:47.032Z,15.30
2022-08-12T06:08:01.955Z,15.40
2022-08-12T06:12:05.417Z,15.50
2022-08-12T06:16:03.902Z,15.70
2022-08-12T06:20:26.831Z,15.90
2022-08-12T06:24:24.327Z,16.10
2022-08-12T06:28:22.730Z,16.40
2022-08-12T06:32:19.823Z,16.60
2022-08-12T06:36:30.091Z,16.80
2022-08-12T06:40:50.423Z,17.10
2022-08-12T06:44:47.463Z,17.40
2022-08-12T06:48:44.518Z,17.70
2022-08-12T06:52:43.679Z,17.90
2022-08-12T06:57:02.885Z,18.10
2022-08-12T07:01:00.260Z,18.30
2022-08-12T07:04:57.564Z,18.50
2022-08-12T07:08:54.543Z,18.60
2022-08-12T07:12:54.964Z,18.70
2022-08-12T07:16:56.833Z,18.80
2022-08-12T07:20:54.146Z,18.90
2022-08-12T07:25:11.272Z,19.10
2022-08-12T07:29:09.961Z,19.20
2022-08-12T07:33:09.749Z,19.40
2022-08-12T07:37:06.756Z,19.50
2022-08-12T07:41:14.511Z,19.60
2022-08-12T07:45:13.914Z,19.80
2022-08-12T07:49:19.705Z,20.00
2022-08-12T07:53:16.913Z,20.30
2022-08-12T07:57:15.597Z,20.40
2022-08-12T08:01:17.644Z,20.60
2022-08-12T08:05:15.591Z,20.80
2022-08-12T08:09:15.875Z,21.40
2022-08-12T08:13:13.755Z,21.80
2022-08-12T08:17:11.610Z,22.20
2022-08-12T08:21:11.212Z,22.50
2022-08-12T08:25:34.744Z,23.30
2022-08-12T08:29:26.165Z,24.10
2022-08-12T08:34:01.593Z,24.80
2022-08-12T08:37:46.304Z,25.40
2022-08-12T08:42:19.374Z,25.00
2022-08-12T08:46:17.046Z,25.70
2022-08-12T08:50:15.339Z,25.70
2022-08-12T08:54:13.310Z,25.00
2022-08-12T08:58:11.672Z,24.90
2022-08-12T09:02:09.250Z,24.90
2022-08-12T09:06:07.267Z,24.80
2022-08-12T09:10:09.174Z,24.80
2022-08-12T09:14:29.260Z,24.80
2022-08-12T09:18:33.374Z,24.30
2022-08-12T09:22:30.904Z,24.20
2022-08-12T09:26:33.806Z,24.10
2022-08-12T09:30:41.048Z,23.70
2022-08-12T09:34:42.550Z,23.70
2022-08-12T09:38:58.490Z,23.50
2022-08-12T09:43:18.675Z,23.70
2022-08-12T09:47:16.521Z,24.40
2022-08-12T09:51:21.659Z,25.30
2022-08-12T09:56:05.995Z,25.30
2022-08-12T10:00:17.240Z,26.50
2022-08-12T10:04:04.151Z,27.30
2022-08-12T10:08:04.974Z,28.00
2022-08-12T10:12:32.750Z,28.70
2022-08-12T10:16:38.623Z,28.70
2022-08-12T10:20:37.480Z,29.00
2022-08-12T10:24:34.613Z,29.10
2022-08-12T10:28:56.236Z,29.90
2022-08-12T10:33:00.239Z,28.80
2022-08-12T10:37:22.918Z,29.20
2022-08-12T10:41:57.347Z,29.30
2022-08-12T10:45:58.292Z,28.70
2022-08-12T10:50:05.641Z,27.00
2022-08-12T10:54:14.351Z,27.20
2022-08-12T10:58:14.422Z,27.80
2022-08-12T11:04:32.099Z,29.10
2022-08-12T11:07:09.657Z,30.40
2022-08-12T11:11:13.217Z,32.20
2022-08-12T11:15:18.620Z,31.70
2022-08-12T11:19:18.090Z,31.10
2022-08-12T11:23:25.405Z,31.10
2022-08-12T11:27:34.239Z,30.50
2022-08-12T11:31:56.287Z,29.20
2022-08-12T11:35:53.128Z,30.20
2022-08-12T11:44:36.350Z,28.80
2022-08-12T11:48:27.077Z,29.60
2022-08-12T11:52:55.523Z,31.60
2022-08-12T11:56:42.894Z,32.30
2022-08-12T12:05:06.972Z,31.50
2022-08-12T12:09:04.073Z,30.90
2022-08-12T12:13:05.173Z,30.70
2022-08-12T12:17:19.917Z,30.80
2022-08-12T12:21:30.019Z,29.90
2022-08-12T12:26:07.063Z,28.70
2022-08-12T12:30:18.138Z,30.50
2022-08-12T12:34:30.238Z,30.40
2022-08-12T12:38:28.102Z,30.00
2022-08-12T12:42:42.843Z,28.10
2022-08-12T12:46:42.095Z,27.90
2022-08-12T12:51:13.978Z,29.10
2022-08-12T12:55:36.009Z,28.40
2022-08-12T12:59:35.000Z,27.80
2022-08-12T13:03:54.244Z,28.50
2022-08-12T13:08:00.640Z,28.10
2022-08-12T13:12:01.082Z,28.80
2022-08-12T13:16:01.761Z,28.40
2022-08-12T13:20:06.614Z,27.40
2022-08-12T13:24:10.144Z,26.50
2022-08-12T13:28:09.630Z,27.40
2022-08-12T13:32:19.576Z,29.00
2022-08-12T13:36:24.270Z,30.20
2022-08-12T13:40:33.964Z,29.60
2022-08-12T13:44:31.354Z,29.40
2022-08-12T13:48:30.574Z,28.70
2022-08-12T13:52:27.593Z,27.90
2022-08-12T13:56:31.493Z,26.90
2022-08-12T14:00:38.981Z,26.60
2022-08-12T14:04:37.205Z,27.10
2022-08-12T14:08:34.795Z,27.10
2022-08-12T14:12:40.216Z,27.00
2022-08-12T14:16:52.073Z,26.70
2022-08-12T14:20:58.460Z,27.20
2022-08-12T14:24:58.379Z,28.80
2022-08-12T14:28:57.735Z,29.90
2022-08-12T14:33:03.242Z,29.80
2022-08-12T14:37:02.430Z,31.30
2022-08-12T14:41:07.497Z,32.50
2022-08-12T14:45:08.041Z,32.10
2022-08-12T14:49:27.511Z,32.60
2022-08-12T14:57:57.939Z,33.00
2022-08-12T15:01:55.557Z,32.30
2022-08-12T15:06:05.564Z,32.70
2022-08-12T15:10:04.332Z,33.30
2022-08-12T15:14:01.722Z,34.40
2022-08-12T15:18:06.965Z,32.20
2022-08-12T15:22:35.633Z,29.80
2022-08-12T15:26:28.310Z,28.20
2022-08-12T15:30:30.281Z,27.80
2022-08-12T15:34:30.889Z,29.30
2022-08-12T15:38:28.224Z,31.00
2022-08-12T15:42:26.485Z,32.50
2022-08-12T15:46:27.647Z,32.70
2022-08-12T15:50:29.657Z,32.10
2022-08-12T15:54:34.057Z,31.10
2022-08-12T15:58:33.724Z,30.10
2022-08-12T16:02:40.771Z,30.40
2022-08-12T16:07:05.625Z,29.90
2022-08-12T16:10:57.948Z,29.00
2022-08-12T16:14:57.497Z,28.00
2022-08-12T16:19:00.820Z,27.30
2022-08-12T16:23:26.322Z,27.50
2022-08-12T16:27:25.662Z,28.80
2022-08-12T16:31:24.097Z,29.40
2022-08-12T16:35:21.360Z,29.30
2022-08-12T16:39:27.818Z,29.80
2022-08-12T16:43:30.374Z,30.30
2022-08-12T16:47:58.214Z,30.40
2022-08-12T16:51:50.285Z,30.10
2022-08-12T16:55:50.739Z,29.30
2022-08-12T16:59:54.146Z,28.70
2022-08-12T17:04:09.085Z,28.50
2022-08-12T17:08:09.690Z,27.90
2022-08-12T17:12:07.998Z,27.20
2022-08-12T17:16:10.701Z,26.90
2022-08-12T17:20:34.674Z,26.20
2022-08-12T17:24:44.078Z,25.30
2022-08-12T17:28:53.776Z,24.60
2022-08-12T17:32:53.473Z,24.10
2022-08-12T17:36:51.650Z,23.70
2022-08-12T17:40:49.114Z,23.50
2022-08-12T17:44:49.119Z,23.20
2022-08-12T17:48:55.051Z,23.00
2022-08-12T17:53:00.468Z,22.90
2022-08-12T17:57:01.337Z,22.90
2022-08-12T18:01:02.270Z,22.90
2022-08-12T18:05:09.361Z,22.90
2022-08-12T18:09:08.574Z,22.90
2022-08-12T18:13:06.977Z,22.90
2022-08-12T18:17:08.253Z,22.80
2022-08-12T18:21:09.793Z,22.70
2022-08-12T18:25:18.661Z,22.60
2022-08-12T18:29:42.252Z,22.50
2022-08-12T18:33:45.670Z,22.20
2022-08-12T18:37:43.210Z,21.90
2022-08-12T18:41:43.386Z,21.60
2022-08-12T18:45:57.034Z,21.30
2022-08-12T18:49:57.380Z,21.00
2022-08-12T18:54:05.293Z,20.80
2022-08-12T18:58:10.107Z,20.50
2022-08-12T19:02:19.499Z,20.30
2022-08-12T19:06:19.876Z,20.10
2022-08-12T19:10:23.034Z,19.90
2022-08-12T19:14:32.814Z,19.70
2022-08-12T19:18:32.357Z,19.50
2022-08-12T19:22:35.277Z,19.40
2022-08-12T19:26:35.180Z,19.30
2022-08-12T19:30:54.499Z,19.20
2022-08-12T19:36:06.632Z,19.20
2022-08-12T19:39:23.143Z,19.10
2022-08-12T19:43:26.837Z,19.00
2022-08-12T19:47:46.068Z,19.00
2022-08-12T19:51:49.595Z,18.90
2022-08-12T19:55:52.856Z,18.80
2022-08-12T20:00:04.099Z,18.70
2022-08-12T20:04:03.275Z,18.70
2022-08-12T20:08:01.079Z,18.60
2022-08-12T20:12:11.962Z,18.40
2022-08-12T20:16:45.492Z,18.40
2022-08-12T20:20:30.569Z,18.20
2022-08-12T20:24:37.592Z,18.10
2022-08-12T20:28:34.860Z,18.10
2022-08-12T20:32:37.606Z,18.00
2022-08-12T20:36:45.395Z,17.90
2022-08-12T20:40:47.807Z,17.90
2022-08-12T20:44:45.336Z,17.80
2022-08-12T20:48:44.359Z,17.70
2022-08-12T20:52:45.306Z,17.60
2022-08-12T20:56:43.078Z,17.50
2022-08-12T21:00:43.623Z,17.40
2022-08-12T21:04:59.239Z,17.20
2022-08-12T21:08:59.228Z,17.20
2022-08-12T21:12:57.341Z,17.00
2022-08-12T21:16:55.184Z,17.00
2022-08-12T21:20:54.565Z,16.90
2022-08-12T21:24:53.090Z,16.90
2022-08-12T21:28:56.780Z,16.80
2022-08-12T21:32:56.571Z,16.80
2022-08-12T21:36:53.953Z,16.70
2022-08-12T21:40:53.851Z,16.60
2022-08-12T21:45:46.962Z,16.60
2022-08-12T21:49:16.460Z,16.50
2022-08-12T21:54:07.889Z,16.40
2022-08-12T21:57:54.640Z,16.30
2022-08-12T22:01:59.586Z,16.30
2022-08-12T22:06:20.289Z,16.20
2022-08-12T22:10:28.541Z,16.00
2022-08-12T22:14:28.995Z,16.00
2022-08-12T22:18:27.473Z,15.90
2022-08-12T22:22:25.389Z,15.90
2022-08-12T22:26:37.593Z,15.80
2022-08-12T22:30:53.521Z,15.80
2022-08-12T22:35:10.445Z,15.70
2022-08-12T22:39:19.368Z,15.60
2022-08-12T22:43:36.382Z,15.50
2022-08-12T22:47:55.861Z,15.40
2022-08-12T22:52:00.256Z,15.30
2022-08-12T22:56:06.697Z,15.20
2022-08-12T23:00:09.063Z,15.20
2022-08-12T23:04:28.530Z,15.10
2022-08-12T23:08:31.864Z,15.00
2022-08-12T23:12:49.099Z,14.90
2022-08-12T23:16:47.249Z,14.90
2022-08-12T23:20:45.071Z,14.90
2022-08-12T23:24:53.669Z,14.80
2022-08-12T23:29:26.045Z,14.80
2022-08-12T23:34:00.682Z,14.70
2022-08-12T23:37:47.577Z,14.70
2022-08-12T23:41:56.307Z,14.60
2022-08-12T23:46:19.497Z,14.60
2022-08-12T23:50:17.174Z,14.50
2022-08-12T23:54:38.773Z,14.40
2022-08-12T23:58:37.022Z,14.30
